Time;durP1;ratioP1;P1;durP2;ratioP2;P2;SDS_P1;SDS_P2;PMS_P1;PMS_P2;Temp;Humidity;BMP_temperature;BMP_pressure;BME280_temperature;BME280_humidity;BME280_pressure;Samples;Min_cycle;Max_cycle;Signal;HPM_P1;HPM_P2
2021/08/22 00:01:38;;;;;;;7.53;4.57;;;20.80;83.90;;;;;;5115384;28;20375;-50
2021/08/22 00:04:04;;;;;;;5.60;4.20;;;20.40;85.40;;;;;;5115471;28;20493;-51
2021/08/22 00:06:30;;;;;;;8.65;4.97;;;20.20;87.00;;;;;;5079240;28;20063;-49
2021/08/22 00:08:56;;;;;;;7.30;4.05;;;20.10;87.60;;;;;;5115140;28;20470;-50
2021/08/22 00:11:21;;;;;;;5.53;4.38;;;20.00;88.30;;;;;;5114903;28;20028;-51
2021/08/22 00:13:47;;;;;;;7.25;4.38;;;19.80;88.90;;;;;;5114955;28;20471;-50
2021/08/22 00:16:13;;;;;;;14.00;4.95;;;19.80;89.30;;;;;;5029119;28;20118;-50
2021/08/22 00:18:39;;;;;;;8.98;4.72;;;19.70;89.80;;;;;;5079331;28;20360;-51
2021/08/22 00:21:04;;;;;;;5.45;4.60;;;19.70;90.00;;;;;;5062828;28;20035;-51
2021/08/22 00:23:32;;;;;;;7.63;5.10;;;19.70;90.20;;;;;;5114727;28;20028;-49
2021/08/22 00:25:58;;;;;;;7.90;4.35;;;19.60;90.60;;;;;;5063025;28;20093;-51
2021/08/22 00:28:23;;;;;;;7.28;4.43;;;19.40;91.90;;;;;;5114446;28;20039;-49
2021/08/22 00:30:49;;;;;;;10.35;4.90;;;19.20;91.80;;;;;;5114717;28;20035;-50
2021/08/22 00:33:15;;;;;;;6.90;4.60;;;19.10;92.00;;;;;;5062325;28;20088;-51
2021/08/22 00:35:41;;;;;;;6.57;4.70;;;19.00;92.30;;;;;;5114259;28;20105;-51
2021/08/22 00:38:06;;;;;;;7.05;4.22;;;19.10;94.90;;;;;;5114428;28;20047;-50
2021/08/22 00:40:33;;;;;;;6.47;4.43;;;19.20;99.90;;;;;;5114538;28;20466;-51
2021/08/22 00:43:04;;;;;;;5.53;4.72;;;19.10;96.30;;;;;;5096487;28;20024;-50
2021/08/22 00:45:30;;;;;;;8.07;5.07;;;19.20;96.80;;;;;;5114352;28;20367;-51
2021/08/22 00:47:56;;;;;;;6.97;4.63;;;19.20;97.50;;;;;;5114385;28;20364;-51
2021/08/22 00:50:22;;;;;;;9.27;5.03;;;19.20;97.90;;;;;;5061844;28;20027;-50
2021/08/22 00:52:50;;;;;;;7.05;4.88;;;19.10;98.10;;;;;;5114438;28;20028;-50
2021/08/22 00:55:17;;;;;;;8.25;4.82;;;19.20;98.30;;;;;;5114276;28;20027;-50
2021/08/22 00:57:43;;;;;;;8.77;4.60;;;19.60;97.50;;;;;;5114260;28;20023;-50
2021/08/22 01:00:10;;;;;;;5.43;4.60;;;19.90;97.90;;;;;;5114348;28;20030;-51
2021/08/22 01:02:47;;;;;;;7.85;4.80;;;20.00;90.80;;;;;;5061680;28;20051;-50
2021/08/22 01:05:21;;;;;;;7.28;5.05;;;20.10;90.70;;;;;;5078635;28;20116;-51
2021/08/22 01:07:58;;;;;;;8.32;5.05;;;20.00;91.10;;;;;;5114116;28;20178;-51
2021/08/22 01:10:26;;;;;;;8.05;4.90;;;19.70;91.50;;;;;;5114088;28;20019;-49
2021/08/22 01:13:00;;;;;;;6.60;4.95;;;19.60;91.60;;;;;;5114104;28;20028;-50
2021/08/22 01:15:30;;;;;;;6.68;4.60;;;19.60;91.50;;;;;;5078306;28;20032;-51
2021/08/22 01:17:56;;;;;;;6.55;4.50;;;19.80;91.20;;;;;;5061964;28;20055;-50
2021/08/22 01:20:44;;;;;;;6.50;4.85;;;19.90;90.90;;;;;;5113951;28;20020;-51
2021/08/22 01:23:11;;;;;;;6.55;4.63;;;20.00;90.90;;;;;;5078435;28;20028;-50
2021/08/22 01:25:40;;;;;;;9.18;5.18;;;20.00;90.90;;;;;;5113832;28;20034;-50
2021/08/22 01:28:06;;;;;;;6.47;4.55;;;20.10;90.60;;;;;;5113926;28;20028;-50
2021/08/22 01:30:39;;;;;;;5.80;4.72;;;20.10;90.60;;;;;;5113766;28;20461;-51
2021/08/22 01:33:10;;;;;;;7.20;4.70;;;20.00;90.60;;;;;;5051222;28;20056;-51
2021/08/22 01:35:37;;;;;;;7.97;4.65;;;20.10;90.70;;;;;;5051050;28;20041;-50
2021/08/22 01:38:03;;;;;;;7.97;4.88;;;20.10;90.70;;;;;;5050991;28;20049;-50
2021/08/22 01:40:31;;;;;;;6.15;5.05;;;20.20;90.50;;;;;;5051201;28;20452;-50
2021/08/22 01:42:57;;;;;;;9.18;5.40;;;20.30;90.20;;;;;;5051176;28;20392;-51
2021/08/22 01:45:23;;;;;;;9.52;5.00;;;20.40;89.70;;;;;;5051299;28;20514;-52
2021/08/22 01:47:49;;;;;;;9.85;5.05;;;20.40;89.60;;;;;;5051005;28;20041;-50
2021/08/22 01:50:20;;;;;;;8.40;5.03;;;20.00;90.10;;;;;;5055220;28;20129;-50
2021/08/22 01:52:47;;;;;;;7.20;4.65;;;19.70;90.80;;;;;;5055276;28;20033;-50
2021/08/22 01:55:13;;;;;;;7.20;5.25;;;19.50;91.40;;;;;;5021780;28;20064;-52
2021/08/22 01:57:42;;;;;;;10.70;5.22;;;19.50;91.30;;;;;;5055003;28;20064;-53
2021/08/22 02:00:08;;;;;;;6.53;4.63;;;19.60;91.20;;;;;;5054842;28;20112;-49
2021/08/22 02:02:36;;;;;;;9.52;5.53;;;19.80;90.80;;;;;;5054887;28;20031;-50
2021/08/22 02:05:04;;;;;;;15.43;6.97;;;20.00;90.50;;;;;;5080087;28;20059;-51
2021/08/22 02:07:31;;;;;;;21.10;7.22;;;20.10;90.30;;;;;;5117341;28;20050;-54
2021/08/22 02:10:30;;;;;;;18.38;8.25;;;20.20;90.10;;;;;;5117504;28;20054;-53
2021/08/22 02:13:01;;;;;;;13.38;7.20;;;20.30;89.80;;;;;;5112326;28;20043;-50
2021/08/22 02:15:40;;;;;;;12.33;7.80;;;20.30;89.50;;;;;;5117529;28;20035;-49
2021/08/22 02:18:15;;;;;;;11.13;6.82;;;20.30;89.30;;;;;;5117301;28;20509;-51
2021/08/22 02:20:44;;;;;;;12.32;7.38;;;20.30;89.00;;;;;;5117313;28;20046;-51
2021/08/22 02:23:12;;;;;;;9.75;7.50;;;20.30;89.20;;;;;;5081487;28;20085;-51
2021/08/22 02:25:38;;;;;;;11.27;7.20;;;20.20;89.90;;;;;;5117319;28;20028;-49
2021/08/22 02:28:04;;;;;;;12.50;7.00;;;20.20;90.00;;;;;;5116970;28;20089;-50
2021/08/22 02:30:35;;;;;;;10.57;7.57;;;20.20;90.00;;;;;;5116994;28;20039;-52
2021/08/22 02:33:05;;;;;;;10.40;6.93;;;20.30;89.40;;;;;;5117124;28;20023;-50
2021/08/22 02:35:31;;;;;;;10.35;6.53;;;20.30;89.30;;;;;;5117032;28;20051;-49
2021/08/22 02:37:57;;;;;;;9.75;6.45;;;20.30;89.90;;;;;;5116918;28;20058;-49
2021/08/22 02:40:23;;;;;;;10.90;6.30;;;20.20;90.20;;;;;;5116913;28;20032;-49
2021/08/22 02:42:50;;;;;;;9.20;6.28;;;20.30;89.70;;;;;;5081012;28;20031;-49
2021/08/22 02:45:16;;;;;;;7.65;5.57;;;20.20;89.70;;;;;;5116950;28;20027;-49
2021/08/22 02:47:41;;;;;;;6.45;5.30;;;20.20;90.00;;;;;;5116589;28;20035;-49
2021/08/22 02:50:08;;;;;;;7.78;5.13;;;19.90;90.20;;;;;;5064552;28;20118;-50
2021/08/22 02:52:34;;;;;;;6.82;5.43;;;19.60;90.70;;;;;;5014950;28;20123;-49
2021/08/22 02:54:59;;;;;;;7.72;4.97;;;19.60;91.00;;;;;;5116724;28;20446;-50
2021/08/22 02:57:25;;;;;;;7.60;5.10;;;19.50;91.30;;;;;;5116904;28;20028;-49
2021/08/22 02:59:51;;;;;;;7.60;5.50;;;19.50;91.20;;;;;;5115826;28;20035;-50
2021/08/22 03:02:17;;;;;;;8.30;5.10;;;19.60;91.20;;;;;;5081014;28;20110;-50
2021/08/22 03:04:43;;;;;;;7.68;5.50;;;19.70;91.00;;;;;;5116514;28;20070;-49
2021/08/22 03:07:09;;;;;;;9.70;5.25;;;19.80;90.70;;;;;;5116884;28;20475;-49
2021/08/22 03:09:35;;;;;;;9.85;6.03;;;19.80;90.60;;;;;;5116318;28;20030;-50
2021/08/22 03:12:00;;;;;;;8.38;5.45;;;19.70;90.70;;;;;;5116350;28;20033;-50
2021/08/22 03:14:27;;;;;;;9.88;5.40;;;19.70;90.70;;;;;;5116420;28;20030;-50
2021/08/22 03:16:53;;;;;;;9.18;5.35;;;19.80;90.70;;;;;;5080278;28;20031;-50
2021/08/22 03:19:18;;;;;;;12.48;6.53;;;19.70;90.70;;;;;;5063846;28;20402;-49
2021/08/22 03:21:47;;;;;;;7.68;5.80;;;19.60;90.90;;;;;;5116353;28;20024;-50
2021/08/22 03:24:14;;;;;;;7.90;5.75;;;19.60;90.90;;;;;;5116289;28;20497;-50
2021/08/22 03:26:40;;;;;;;11.98;6.35;;;19.70;90.90;;;;;;5115924;28;20113;-49
2021/08/22 03:29:06;;;;;;;8.43;5.70;;;19.80;90.80;;;;;;5063704;28;20039;-50
2021/08/22 03:31:32;;;;;;;10.75;5.80;;;19.80;90.60;;;;;;5116073;28;20019;-50
2021/08/22 03:34:00;;;;;;;9.20;5.70;;;19.80;90.70;;;;;;5079787;28;20479;-49
2021/08/22 03:36:26;;;;;;;10.55;5.47;;;19.80;90.50;;;;;;5115823;28;20348;-49
2021/08/22 03:38:52;;;;;;;11.43;6.00;;;19.80;90.50;;;;;;5115436;28;20058;-49
2021/08/22 03:41:17;;;;;;;10.13;6.30;;;19.80;90.80;;;;;;5096951;28;20031;-50
2021/08/22 03:43:43;;;;;;;8.40;5.78;;;19.70;90.90;;;;;;5115436;28;20435;-50
2021/08/22 03:46:09;;;;;;;8.77;6.32;;;19.70;90.70;;;;;;5080242;28;20119;-49
2021/08/22 03:48:34;;;;;;;10.25;6.55;;;19.80;90.60;;;;;;5115662;28;20067;-50
2021/08/22 03:51:00;;;;;;;9.10;6.45;;;19.90;90.50;;;;;;5115454;28;20024;-49
2021/08/22 03:53:26;;;;;;;11.77;6.30;;;20.00;90.30;;;;;;5115540;28;20111;-50
2021/08/22 03:55:52;;;;;;;11.95;5.90;;;20.00;90.30;;;;;;5063194;28;20066;-50
2021/08/22 03:58:18;;;;;;;17.88;6.00;;;20.00;90.10;;;;;;5029911;28;20039;-49
2021/08/22 04:00:43;;;;;;;9.02;5.53;;;20.00;90.30;;;;;;5115363;28;20032;-50
2021/08/22 04:03:09;;;;;;;13.30;5.82;;;19.80;90.60;;;;;;5063257;28;20039;-50
2021/08/22 04:05:36;;;;;;;9.82;5.45;;;19.80;90.60;;;;;;5062903;28;20039;-49
2021/08/22 04:08:02;;;;;;;16.38;6.25;;;19.80;90.70;;;;;;5062873;28;20075;-49
2021/08/22 04:10:28;;;;;;;14.38;6.57;;;19.80;90.60;;;;;;5062545;28;20090;-50
2021/08/22 04:12:54;;;;;;;9.68;6.57;;;19.90;90.60;;;;;;5078912;28;20395;-50
2021/08/22 04:15:20;;;;;;;12.85;6.05;;;19.90;90.50;;;;;;5114946;28;20026;-49
2021/08/22 04:17:46;;;;;;;13.25;6.85;;;20.00;90.30;;;;;;5114941;28;20032;-49
2021/08/22 04:20:13;;;;;;;13.60;6.63;;;20.10;90.30;;;;;;5114940;28;20433;-50
2021/08/22 04:22:40;;;;;;;11.95;5.85;;;20.10;90.20;;;;;;5114844;28;20035;-50
2021/08/22 04:25:08;;;;;;;12.57;5.40;;;20.20;90.10;;;;;;5115073;28;20043;-50
2021/08/22 04:27:34;;;;;;;13.65;5.82;;;20.20;90.10;;;;;;5013449;28;20071;-49
2021/08/22 04:30:00;;;;;;;16.48;6.00;;;20.20;90.20;;;;;;5114559;28;20088;-50
2021/08/22 04:32:26;;;;;;;8.25;5.40;;;20.20;90.10;;;;;;5114710;28;20428;-49
2021/08/22 04:34:52;;;;;;;10.40;4.57;;;20.10;90.20;;;;;;5114587;28;20102;-49
2021/08/22 04:37:18;;;;;;;12.13;5.28;;;20.00;90.50;;;;;;5045720;28;20143;-50
2021/08/22 04:39:44;;;;;;;9.25;5.55;;;20.10;90.40;;;;;;5114616;28;20480;-49
2021/08/22 04:42:10;;;;;;;16.92;6.60;;;20.20;90.40;;;;;;5079044;28;20363;-49
2021/08/22 04:44:36;;;;;;;10.98;5.60;;;20.20;90.70;;;;;;5062467;28;20088;-49
2021/08/22 04:47:05;;;;;;;12.35;5.70;;;20.30;90.50;;;;;;5114465;28;20084;-50
2021/08/22 04:49:31;;;;;;;18.48;5.93;;;20.40;90.60;;;;;;5063157;28;20040;-51
2021/08/22 04:51:57;;;;;;;14.07;6.57;;;20.50;90.40;;;;;;5114577;28;20038;-49
2021/08/22 04:54:23;;;;;;;20.58;6.72;;;20.50;90.30;;;;;;5116504;27;20050;-50
2021/08/22 04:56:49;;;;;;;17.35;6.25;;;20.60;90.20;;;;;;5121396;27;20467;-50
2021/08/22 04:59:14;;;;;;;14.80;7.80;;;20.70;90.10;;;;;;5133684;27;20049;-50
2021/08/22 05:01:41;;;;;;;22.55;9.20;;;20.80;90.10;;;;;;5072734;27;20035;-49
2021/08/22 05:04:06;;;;;;;18.33;10.45;;;20.90;90.00;;;;;;5134126;27;20022;-50
2021/08/22 05:06:32;;;;;;;18.77;9.18;;;21.00;89.80;;;;;;5130377;27;20019;-49
2021/08/22 05:08:58;;;;;;;16.23;7.70;;;21.10;89.70;;;;;;5097912;27;20042;-50
2021/08/22 05:11:23;;;;;;;11.60;8.35;;;21.20;89.70;;;;;;5098252;27;20100;-49
2021/08/22 05:13:49;;;;;;;14.68;10.02;;;21.00;88.80;;;;;;5134004;27;20377;-50
2021/08/22 05:16:15;;;;;;;13.65;7.40;;;20.90;90.20;;;;;;5097942;28;20110;-49
2021/08/22 05:18:41;;;;;;;12.15;6.63;;;20.80;90.50;;;;;;5134380;27;20124;-50
2021/08/22 05:21:07;;;;;;;12.30;5.70;;;20.80;90.70;;;;;;5110595;28;20039;-50
2021/08/22 05:23:32;;;;;;;10.52;6.35;;;21.00;90.70;;;;;;5131712;27;20092;-49
2021/08/22 05:25:58;;;;;;;8.15;6.13;;;20.90;90.80;;;;;;5113718;28;20027;-49
2021/08/22 05:28:24;;;;;;;8.65;6.32;;;20.70;91.50;;;;;;5078212;28;20483;-50
2021/08/22 05:30:50;;;;;;;8.80;5.72;;;20.70;91.20;;;;;;5113680;28;20032;-49
2021/08/22 05:33:16;;;;;;;9.52;6.82;;;20.80;91.60;;;;;;5113882;28;20035;-49
2021/08/22 05:35:42;;;;;;;10.40;6.80;;;20.70;91.70;;;;;;5124505;28;20027;-50
2021/08/22 05:38:08;;;;;;;13.98;7.05;;;20.80;91.90;;;;;;5095149;28;20039;-50
2021/08/22 05:40:35;;;;;;;11.38;7.18;;;20.90;91.90;;;;;;5132820;28;20027;-49
2021/08/22 05:43:01;;;;;;;11.82;7.30;;;21.10;91.80;;;;;;5133252;28;20023;-50
2021/08/22 05:45:27;;;;;;;12.82;7.75;;;21.30;91.40;;;;;;5112624;28;20027;-50
2021/08/22 05:47:52;;;;;;;14.32;8.10;;;21.50;91.20;;;;;;5133654;28;20034;-50
2021/08/22 05:50:18;;;;;;;16.80;8.65;;;21.50;91.00;;;;;;5133456;28;20027;-51
2021/08/22 05:52:44;;;;;;;12.50;9.30;;;21.40;90.90;;;;;;5133952;28;20390;-50
2021/08/22 05:55:11;;;;;;;20.40;12.50;;;21.60;90.90;;;;;;5064372;28;20043;-52
2021/08/22 05:57:37;;;;;;;18.95;13.95;;;21.70;90.50;;;;;;5115608;28;20039;-49
2021/08/22 06:00:05;;;;;;;19.35;11.85;;;21.90;90.20;;;;;;5134110;28;20023;-49
2021/08/22 06:02:30;;;;;;;19.58;11.68;;;22.10;89.40;;;;;;5048082;28;20036;-49
2021/08/22 06:04:56;;;;;;;17.85;11.15;;;22.20;89.10;;;;;;5113513;28;20027;-49
2021/08/22 06:07:23;;;;;;;14.07;9.88;;;22.40;88.30;;;;;;5131104;28;20041;-49
2021/08/22 06:09:50;;;;;;;12.25;9.35;;;22.60;88.00;;;;;;5084112;28;20050;-49
2021/08/22 06:12:17;;;;;;;18.15;9.32;;;22.70;87.30;;;;;;5118390;28;20024;-49
2021/08/22 06:14:43;;;;;;;14.07;9.10;;;22.90;86.30;;;;;;5113383;28;20023;-49
2021/08/22 06:17:09;;;;;;;16.58;9.23;;;23.10;85.90;;;;;;5062142;28;20027;-48
2021/08/22 06:19:35;;;;;;;16.35;9.35;;;23.20;85.10;;;;;;5113455;28;20106;-49
2021/08/22 06:22:01;;;;;;;12.15;8.30;;;23.20;84.90;;;;;;5113284;28;20501;-49
2021/08/22 06:24:27;;;;;;;11.95;8.65;;;23.30;84.40;;;;;;5113531;28;20102;-49
2021/08/22 06:26:53;;;;;;;17.95;8.95;;;23.10;83.90;;;;;;5077792;28;20118;-48
2021/08/22 06:29:18;;;;;;;13.80;8.20;;;23.10;85.10;;;;;;5113536;28;20026;-49
2021/08/22 06:31:44;;;;;;;13.50;8.38;;;23.20;84.70;;;;;;5061356;28;20043;-49
2021/08/22 06:34:10;;;;;;;11.20;7.38;;;23.50;84.60;;;;;;5114091;28;20024;-48
2021/08/22 06:36:38;;;;;;;13.15;8.75;;;23.60;83.00;;;;;;5117017;28;20065;-48
2021/08/22 06:39:08;;;;;;;17.13;7.47;;;23.60;83.50;;;;;;5116867;28;20542;-49
2021/08/22 06:41:34;;;;;;;10.85;6.72;;;23.80;83.60;;;;;;5116902;28;20027;-49
2021/08/22 06:44:00;;;;;;;10.60;6.72;;;23.90;81.90;;;;;;5117011;28;20161;-49
2021/08/22 06:46:26;;;;;;;11.75;7.00;;;24.10;83.40;;;;;;5081094;28;20039;-49
2021/08/22 06:48:52;;;;;;;12.48;7.10;;;24.30;82.50;;;;;;5116755;28;20549;-49
2021/08/22 06:51:18;;;;;;;17.20;8.80;;;24.60;81.90;;;;;;5116641;28;20031;-49
2021/08/22 06:53:43;;;;;;;13.85;7.53;;;24.80;81.30;;;;;;5031334;28;20038;-49
2021/08/22 06:56:09;;;;;;;12.52;7.53;;;24.80;80.50;;;;;;5116688;28;20398;-49
2021/08/22 06:58:35;;;;;;;10.88;6.93;;;25.00;80.00;;;;;;5116689;28;20020;-50
2021/08/22 07:01:02;;;;;;;10.35;6.97;;;25.30;89.70;;;;;;5116549;28;20024;-49
2021/08/22 07:03:27;;;;;;;11.25;6.65;;;25.40;77.60;;;;;;5116493;28;20444;-49
2021/08/22 07:05:53;;;;;;;11.60;8.00;;;25.50;77.80;;;;;;5116721;28;20052;-49
2021/08/22 07:08:19;;;;;;;11.13;6.50;;;25.70;78.60;;;;;;5116391;28;20035;-49
2021/08/22 07:10:44;;;;;;;14.27;7.25;;;25.70;77.40;;;;;;5116425;28;20023;-49
2021/08/22 07:13:11;;;;;;;8.82;6.18;;;;;;;;;;5116432;28;20051;-50
2021/08/22 07:15:36;;;;;;;10.85;5.93;;;25.90;74.90;;;;;;5116369;28;20088;-50
2021/08/22 07:18:02;;;;;;;10.27;5.55;;;26.00;76.80;;;;;;5080617;28;20479;-50
2021/08/22 07:20:28;;;;;;;7.88;5.15;;;;;;;;;;5116250;28;20463;-49
2021/08/22 07:22:55;;;;;;;10.63;6.00;;;;;;;;;;5116085;28;20386;-49
2021/08/22 07:25:21;;;;;;;10.20;5.60;;;;;;;;;;5116226;28;20035;-49
2021/08/22 07:27:48;;;;;;;11.85;6.78;;;;;;;;;;5064379;28;20048;-49
2021/08/22 07:30:14;;;;;;;9.00;5.72;;;;;;;;;;5116037;28;20089;-49
2021/08/22 07:32:40;;;;;;;8.77;5.28;;;27.10;72.00;;;;;;5116544;28;20085;-49
2021/08/22 07:35:06;;;;;;;9.40;4.35;;;27.20;71.70;;;;;;5080262;28;20482;-49
2021/08/22 07:37:33;;;;;;;6.30;4.90;;;27.40;69.10;;;;;;5013890;28;20055;-49
2021/08/22 07:39:58;;;;;;;7.75;4.72;;;27.50;69.50;;;;;;5115746;28;20028;-50
2021/08/22 07:42:24;;;;;;;9.25;4.50;;;27.70;69.00;;;;;;5115965;28;20030;-49
2021/08/22 07:44:50;;;;;;;13.23;6.75;;;27.80;69.20;;;;;;5115928;28;20019;-50
2021/08/22 07:47:16;;;;;;;8.95;4.90;;;27.90;68.60;;;;;;5096736;28;20501;-49
2021/08/22 07:49:41;;;;;;;7.00;4.60;;;28.10;68.30;;;;;;5080171;28;20047;-50
2021/08/22 07:52:07;;;;;;;8.57;4.47;;;28.20;68.00;;;;;;5115410;28;20024;-50
2021/08/22 07:54:33;;;;;;;6.72;4.45;;;28.50;68.60;;;;;;5063358;28;20111;-49
2021/08/22 07:57:00;;;;;;;6.88;4.32;;;;;;;;;;5115665;28;20485;-49
2021/08/22 07:59:26;;;;;;;7.45;4.90;;;;;;;;;;5115646;28;20436;-50
2021/08/22 08:01:52;;;;;;;7.47;4.15;;;28.90;67.10;;;;;;5115353;28;20046;-49
2021/08/22 08:04:18;;;;;;;6.80;3.67;;;28.90;68.10;;;;;;5115641;28;20463;-50
2021/08/22 08:06:43;;;;;;;6.57;4.47;;;28.90;64.10;;;;;;5013423;28;20027;-50
2021/08/22 08:09:09;;;;;;;7.63;4.07;;;29.10;65.70;;;;;;5115265;28;20554;-50
2021/08/22 08:11:35;;;;;;;6.05;4.13;;;29.10;65.30;;;;;;5115442;28;20072;-50
2021/08/22 08:14:00;;;;;;;7.15;3.63;;;29.40;65.20;;;;;;5080021;28;20077;-50
2021/08/22 08:16:26;;;;;;;9.90;3.90;;;29.60;64.90;;;;;;5115385;28;20039;-49
2021/08/22 08:18:52;;;;;;;5.50;3.17;;;29.90;66.10;;;;;;5079508;28;20046;-49
2021/08/22 08:21:18;;;;;;;6.65;3.20;;;29.90;64.30;;;;;;5079396;28;20462;-49
2021/08/22 08:23:44;;;;;;;7.03;3.95;;;29.80;61.70;;;;;;5062930;28;20040;-49
2021/08/22 08:26:10;;;;;;;6.38;3.47;;;30.00;62.40;;;;;;5063037;28;20035;-49
2021/08/22 08:28:36;;;;;;;9.05;3.65;;;30.20;61.90;;;;;;5115576;28;20032;-49
2021/08/22 08:31:02;;;;;;;8.25;3.50;;;;;;;;;;5114926;28;20042;-50
2021/08/22 08:33:28;;;;;;;5.25;3.20;;;30.90;73.50;;;;;;5115277;28;20053;-49
2021/08/22 08:35:54;;;;;;;5.68;3.67;;;31.20;70.60;;;;;;5116034;28;20028;-50
2021/08/22 08:38:20;;;;;;;8.07;3.65;;;31.30;60.60;;;;;;5079082;28;20062;-50
2021/08/22 08:40:46;;;;;;;5.68;3.22;;;31.30;58.10;;;;;;5013389;28;20031;-49
2021/08/22 08:43:13;;;;;;;3.78;2.80;;;31.10;58.90;;;;;;5115003;28;20031;-49
2021/08/22 08:46:12;;;;;;;6.25;3.17;;;30.90;58.90;;;;;;5114768;28;20059;-50
2021/08/22 08:48:56;;;;;;;5.80;3.15;;;;;;;;;;5114575;28;20390;-50
2021/08/22 08:51:28;;;;;;;5.75;3.05;;;31.80;77.30;;;;;;5114335;28;20016;-50
2021/08/22 08:53:58;;;;;;;6.25;3.50;;;31.90;71.90;;;;;;5114538;28;20471;-50
2021/08/22 08:56:34;;;;;;;6.13;3.13;;;32.10;59.10;;;;;;5114534;28;20027;-50
2021/08/22 08:59:00;;;;;;;5.53;3.25;;;32.00;57.30;;;;;;5114793;28;20114;-50
2021/08/22 09:01:26;;;;;;;4.47;3.08;;;32.40;58.30;;;;;;5114427;28;20115;-49
2021/08/22 09:04:07;;;;;;;5.93;3.08;;;32.60;57.90;;;;;;5114502;28;20039;-50
2021/08/22 09:06:54;;;;;;;4.85;3.10;;;32.80;60.60;;;;;;5114752;28;20035;-50
2021/08/22 09:09:58;;;;;;;4.22;2.53;;;32.50;61.20;;;;;;5079134;28;20050;-50
2021/08/22 09:13:17;;;;;;;3.30;2.88;;;32.00;58.40;;;;;;5114398;28;20023;-49
2021/08/22 09:16:01;;;;;;;3.90;2.80;;;32.30;59.20;;;;;;5011875;28;20033;-50
2021/08/22 09:19:04;;;;;;;3.72;2.60;;;32.60;59.80;;;;;;5011810;28;20459;-50
2021/08/22 09:21:50;;;;;;;6.90;3.22;;;33.20;63.50;;;;;;5012091;28;20034;-50
2021/08/22 09:24:31;;;;;;;6.97;3.00;;;33.70;54.80;;;;;;5011740;28;20092;-50
2021/08/22 09:27:38;;;;;;;4.68;2.95;;;33.60;73.00;;;;;;5009645;28;20026;-50
2021/08/22 09:30:31;;;;;;;4.88;3.40;;;33.80;69.40;;;;;;4951640;28;20062;-52
2021/08/22 09:33:34;;;;;;;5.95;3.17;;;32.90;67.00;;;;;;4969467;28;20525;-50
2021/08/22 09:36:23;;;;;;;4.68;2.80;;;33.20;62.70;;;;;;4970423;28;20124;-50
2021/08/22 09:38:50;;;;;;;7.25;3.13;;;;;;;;;;4953355;28;20055;-50
2021/08/22 09:41:46;;;;;;;4.78;2.80;;;34.00;54.60;;;;;;4969593;28;20046;-49
2021/08/22 09:44:33;;;;;;;4.60;2.85;;;34.50;66.40;;;;;;4973292;28;20064;-50
2021/08/22 09:47:23;;;;;;;2.80;2.47;;;34.40;51.70;;;;;;4970465;28;20440;-49
2021/08/22 09:50:06;;;;;;;5.22;3.00;;;34.00;51.90;;;;;;5022180;28;20033;-50
2021/08/22 09:52:51;;;;;;;6.35;3.42;;;;;;;;;;5048623;28;20025;-50
2021/08/22 09:55:38;;;;;;;6.55;2.70;;;34.80;53.00;;;;;;5016184;28;20051;-49
2021/08/22 09:58:28;;;;;;;4.20;2.85;;;34.90;52.40;;;;;;5032877;28;20064;-49
2021/08/22 10:01:18;;;;;;;5.22;2.90;;;35.00;51.10;;;;;;5049458;28;20037;-50
2021/08/22 10:04:14;;;;;;;3.33;3.03;;;35.50;61.20;;;;;;5049590;28;20025;-49
2021/08/22 10:06:58;;;;;;;5.68;2.95;;;34.70;50.50;;;;;;5074927;28;20036;-48
2021/08/22 10:09:25;;;;;;;3.90;3.05;;;35.10;51.20;;;;;;5133997;27;20027;-49
2021/08/22 10:11:54;;;;;;;4.22;2.70;;;;;;;;;;5117671;27;20071;-49
2021/08/22 10:14:20;;;;;;;4.20;2.90;;;35.50;49.70;;;;;;5135868;27;20023;-50
2021/08/22 10:16:50;;;;;;;3.50;2.50;;;34.90;49.60;;;;;;5128084;27;20016;-48
2021/08/22 10:19:21;;;;;;;3.70;3.00;;;33.80;50.40;;;;;;5135885;27;20027;-49
2021/08/22 10:22:16;;;;;;;4.22;2.50;;;34.50;51.20;;;;;;5136845;27;20035;-49
2021/08/22 10:24:46;;;;;;;4.00;3.00;;;34.70;50.40;;;;;;5136765;27;20045;-49
2021/08/22 10:27:36;;;;;;;6.82;2.60;;;35.20;50.50;;;;;;5136523;27;20057;-49
2021/08/22 10:30:02;;;;;;;6.70;3.10;;;35.20;50.80;;;;;;5136493;27;20059;-49
2021/08/22 10:32:31;;;;;;;3.60;2.58;;;34.90;49.60;;;;;;5136173;27;20098;-48
2021/08/22 10:35:15;;;;;;;4.57;3.42;;;35.30;49.80;;;;;;5137593;27;20094;-49
2021/08/22 10:37:42;;;;;;;4.82;2.78;;;35.00;48.90;;;;;;5136508;27;20462;-48
2021/08/22 10:40:26;;;;;;;5.97;3.08;;;34.90;49.30;;;;;;5137531;27;20031;-49
2021/08/22 10:42:51;;;;;;;5.53;2.85;;;35.50;50.20;;;;;;5137643;27;20145;-49
2021/08/22 10:45:46;;;;;;;3.08;2.78;;;35.70;49.10;;;;;;5137227;27;20478;-48
2021/08/22 10:48:32;;;;;;;5.30;2.85;;;;;;;;;;5137282;27;20031;-49
2021/08/22 10:50:59;;;;;;;5.50;2.78;;;;;;;;;;5136738;27;20035;-50
2021/08/22 10:53:28;;;;;;;4.53;2.97;;;36.50;47.70;;;;;;5134133;27;20023;-49
2021/08/22 10:55:56;;;;;;;3.05;2.55;;;36.50;47.00;;;;;;5126426;27;20015;-49
2021/08/22 10:58:42;;;;;;;2.45;1.98;;;;;;;;;;5086197;28;20151;-48
2021/08/22 11:01:19;;;;;;;3.05;2.00;;;;;;;;;;5057482;28;20499;-48
2021/08/22 11:04:01;;;;;;;3.72;2.25;;;;;;;;;;5085197;28;20028;-49
2021/08/22 11:06:28;;;;;;;3.42;2.55;;;;;;;;;;5088806;28;20028;-49
2021/08/22 11:08:54;;;;;;;3.30;2.65;;;;;;;;;;5087895;28;19919;-48
2021/08/22 11:11:19;;;;;;;7.38;2.92;;;37.10;45.30;;;;;;5067437;28;20033;-50
2021/08/22 11:13:59;;;;;;;3.88;2.60;;;37.00;48.40;;;;;;5055591;28;20032;-50
2021/08/22 11:16:40;;;;;;;4.57;2.50;;;36.10;48.40;;;;;;5082283;28;20052;-50
2021/08/22 11:19:06;;;;;;;4.30;2.60;;;36.60;50.40;;;;;;5091135;28;20036;-50
2021/08/22 11:21:32;;;;;;;3.67;2.50;;;36.90;48.30;;;;;;5089533;28;20067;-49
2021/08/22 11:24:01;;;;;;;4.28;2.90;;;37.00;52.30;;;;;;5057392;28;20087;-48
2021/08/22 11:26:28;;;;;;;3.50;2.40;;;37.60;45.10;;;;;;5087312;28;20099;-49
2021/08/22 11:28:57;;;;;;;6.40;2.53;;;37.60;45.60;;;;;;5104284;27;20035;-50
2021/08/22 11:31:27;;;;;;;4.30;2.60;;;37.70;45.50;;;;;;5091897;27;20031;-50
2021/08/22 11:33:52;;;;;;;4.78;2.20;;;37.80;45.50;;;;;;5108369;27;20087;-49
2021/08/22 11:36:25;;;;;;;6.22;2.50;;;37.90;44.70;;;;;;5127067;27;20101;-49
2021/08/22 11:39:10;;;;;;;6.13;2.38;;;37.10;44.80;;;;;;5094362;27;20051;-50
2021/08/22 11:41:36;;;;;;;4.10;2.75;;;35.60;45.70;;;;;;5127781;27;20394;-48
2021/08/22 11:44:02;;;;;;;3.85;2.35;;;35.50;46.40;;;;;;5090868;27;20130;-55
2021/08/22 11:46:29;;;;;;;5.85;2.50;;;;;;;;;;5128129;27;20549;-46
2021/08/22 11:48:56;;;;;;;4.47;2.70;;;35.20;78.60;;;;;;5129064;27;20509;-48
2021/08/22 11:51:22;;;;;;;6.80;2.60;;;35.20;59.60;;;;;;5122220;27;20035;-53
2021/08/22 11:53:48;;;;;;;6.90;2.50;;;35.10;72.10;;;;;;5126810;27;20028;-49
2021/08/22 11:56:22;;;;;;;3.40;2.55;;;34.80;48.10;;;;;;5121578;27;20074;-50
2021/08/22 11:58:47;;;;;;;2.90;2.28;;;34.40;46.40;;;;;;5130465;27;20050;-50
2021/08/22 12:01:17;;;;;;;3.67;3.03;;;;;;;;;;5035486;27;20038;-50
2021/08/22 12:03:56;;;;;;;3.03;2.50;;;34.20;52.90;;;;;;5128340;27;20038;-50
2021/08/22 12:06:22;;;;;;;3.33;2.50;;;34.10;47.60;;;;;;5072812;27;20442;-50
2021/08/22 12:08:48;;;;;;;3.63;2.80;;;;;;;;;;5125145;27;20122;-50
2021/08/22 12:11:17;;;;;;;3.17;2.60;;;;;;;;;;5123136;27;20488;-49
2021/08/22 12:13:45;;;;;;;5.10;2.47;;;35.70;87.80;;;;;;5128454;27;20032;-50
2021/08/22 12:16:29;;;;;;;3.78;2.70;;;36.10;48.90;;;;;;5076920;27;20477;-50
2021/08/22 12:19:19;;;;;;;4.68;2.67;;;36.10;46.80;;;;;;5089180;27;20031;-50
2021/08/22 12:21:46;;;;;;;3.03;2.42;;;36.10;46.70;;;;;;5126282;27;20031;-49
2021/08/22 12:24:29;;;;;;;3.90;2.42;;;36.20;46.20;;;;;;5128643;27;20039;-50
2021/08/22 12:26:59;;;;;;;4.38;2.50;;;36.00;45.80;;;;;;5128286;27;20027;-50
2021/08/22 12:29:34;;;;;;;3.30;2.85;;;36.30;47.90;;;;;;5126785;27;20027;-50
2021/08/22 12:32:10;;;;;;;5.15;2.58;;;36.40;46.90;;;;;;5128894;27;20027;-50
2021/08/22 12:34:36;;;;;;;4.18;2.42;;;36.40;46.60;;;;;;5071753;27;20050;-50
2021/08/22 12:37:09;;;;;;;4.07;2.72;;;36.70;47.10;;;;;;5129569;27;20498;-50
2021/08/22 12:39:35;;;;;;;4.75;2.42;;;36.70;45.80;;;;;;5128659;27;20043;-50
2021/08/22 12:42:00;;;;;;;3.70;2.28;;;37.10;46.20;;;;;;5129101;27;20059;-50
2021/08/22 12:44:28;;;;;;;4.13;2.72;;;36.80;45.40;;;;;;5129682;27;20069;-50
2021/08/22 12:46:55;;;;;;;3.90;2.67;;;36.90;47.20;;;;;;5123363;27;20114;-50
2021/08/22 12:49:21;;;;;;;4.53;2.72;;;36.10;45.40;;;;;;5106859;27;20031;-50
2021/08/22 12:51:54;;;;;;;6.00;2.63;;;35.40;47.50;;;;;;5128140;27;20062;-49
2021/08/22 12:54:21;;;;;;;3.97;2.70;;;;;;;;;;5124006;27;20029;-50
2021/08/22 12:56:48;;;;;;;4.53;2.35;;;;;;;;;;5123513;27;20377;-50
2021/08/22 12:59:14;;;;;;;2.72;2.20;;;;;;;;;;5127975;27;20043;-50
2021/08/22 13:01:40;;;;;;;2.80;2.33;;;35.90;48.50;;;;;;5122801;27;20104;-49
2021/08/22 13:04:06;;;;;;;4.25;2.25;;;35.90;46.60;;;;;;5072907;27;20031;-50
2021/08/22 13:06:32;;;;;;;4.25;2.38;;;35.50;53.40;;;;;;5061735;27;20042;-49